createdAt,value
2022-10-02T00:00:17.636Z,12.25
2022-10-02T00:01:17.647Z,12.36
2022-10-02T00:02:17.605Z,12.41
2022-10-02T00:03:17.585Z,12.30
2022-10-02T00:04:17.662Z,12.25
2022-10-02T00:05:17.559Z,12.26
2022-10-02T00:06:17.546Z,12.34
2022-10-02T00:07:17.558Z,12.21
2022-10-02T00:08:21.964Z,12.30
2022-10-02T00:09:18.537Z,12.19
2022-10-02T00:10:17.494Z,12.29
2022-10-02T00:11:17.479Z,12.29
2022-10-02T00:12:17.472Z,12.19
2022-10-02T00:13:17.453Z,12.25
2022-10-02T00:14:17.443Z,12.30
2022-10-02T00:15:17.422Z,12.25
2022-10-02T00:16:17.462Z,12.25
2022-10-02T00:17:17.405Z,12.23
2022-10-02T00:18:17.381Z,12.18
2022-10-02T00:19:17.370Z,12.25
2022-10-02T00:20:17.360Z,12.26
2022-10-02T00:21:17.341Z,12.16
2022-10-02T00:22:17.328Z,12.18
2022-10-02T00:23:17.338Z,12.18
2022-10-02T00:24:17.306Z,12.23
2022-10-02T00:25:17.293Z,12.23
2022-10-02T00:26:17.282Z,12.21
2022-10-02T00:27:17.258Z,12.30
2022-10-02T00:28:17.327Z,12.38
2022-10-02T00:29:17.235Z,12.34
2022-10-02T00:30:17.227Z,12.36
2022-10-02T00:31:17.317Z,12.34
2022-10-02T00:32:17.202Z,12.41
2022-10-02T00:33:17.180Z,12.38
2022-10-02T00:34:17.170Z,12.38
2022-10-02T00:35:17.149Z,12.36
2022-10-02T00:36:17.145Z,12.43
2022-10-02T00:37:17.125Z,12.34
2022-10-02T00:38:17.118Z,12.33
2022-10-02T00:39:17.112Z,12.30
2022-10-02T00:40:17.081Z,12.33
2022-10-02T00:41:17.070Z,12.29
2022-10-02T00:42:17.054Z,12.31
2022-10-02T00:43:17.038Z,12.30
2022-10-02T00:44:17.031Z,12.46
2022-10-02T00:45:17.016Z,12.37
2022-10-02T00:46:17.043Z,12.29
2022-10-02T00:47:16.993Z,12.37
2022-10-02T00:48:16.982Z,12.38
2022-10-02T00:49:16.963Z,12.33
2022-10-02T00:50:16.951Z,12.31
2022-10-02T00:51:16.930Z,12.30
2022-10-02T00:52:16.925Z,12.23
2022-10-02T00:53:16.911Z,12.26
2022-10-02T00:54:16.905Z,12.29
2022-10-02T00:55:16.896Z,12.33
2022-10-02T00:56:16.874Z,12.33
2022-10-02T00:57:16.852Z,12.34
2022-10-02T00:58:16.840Z,12.18
2022-10-02T00:59:16.832Z,12.30
2022-10-02T01:00:16.814Z,12.31
2022-10-02T01:01:16.910Z,12.25
2022-10-02T01:02:16.839Z,12.33
2022-10-02T01:03:16.772Z,12.29
2022-10-02T01:04:16.758Z,12.25
2022-10-02T01:05:16.742Z,12.34
2022-10-02T01:06:16.728Z,12.31
2022-10-02T01:07:16.716Z,12.26
2022-10-02T01:08:16.703Z,12.26
2022-10-02T01:09:16.684Z,12.40
2022-10-02T01:10:16.727Z,12.36
2022-10-02T01:11:16.686Z,12.29
2022-10-02T01:12:16.652Z,12.36
2022-10-02T01:13:16.634Z,12.41
2022-10-02T01:14:16.630Z,12.36
2022-10-02T01:15:16.604Z,12.37
2022-10-02T01:16:16.684Z,12.26
2022-10-02T01:17:16.582Z,12.33
2022-10-02T01:18:16.569Z,12.23
2022-10-02T01:19:16.553Z,12.33
2022-10-02T01:20:16.537Z,12.37
2022-10-02T01:21:16.520Z,12.40
2022-10-02T01:22:16.513Z,12.31
2022-10-02T01:23:16.498Z,12.26
2022-10-02T01:24:16.486Z,12.23
2022-10-02T01:25:16.470Z,12.41
2022-10-02T01:26:16.456Z,12.34
2022-10-02T01:27:16.466Z,12.41
2022-10-02T01:28:16.636Z,12.29
2022-10-02T01:29:16.423Z,12.38
2022-10-02T01:30:16.413Z,12.37
2022-10-02T01:31:16.482Z,12.31
2022-10-02T01:32:16.383Z,12.37
2022-10-02T01:33:16.362Z,12.30
2022-10-02T01:34:16.358Z,12.40
2022-10-02T01:35:16.331Z,12.29
2022-10-02T01:36:16.326Z,12.43
2022-10-02T01:37:16.313Z,12.43
2022-10-02T01:38:16.302Z,12.44
2022-10-02T01:39:16.280Z,12.25
2022-10-02T01:40:16.272Z,12.29
2022-10-02T01:41:16.254Z,12.43
2022-10-02T01:42:16.246Z,12.33
2022-10-02T01:43:16.327Z,12.29
2022-10-02T01:44:16.211Z,12.36
2022-10-02T01:45:16.199Z,12.37
2022-10-02T01:46:16.329Z,12.36
2022-10-02T01:47:16.172Z,12.34
2022-10-02T01:48:16.159Z,12.37
2022-10-02T01:49:16.141Z,12.38
2022-10-02T01:50:16.129Z,12.46
2022-10-02T01:51:16.119Z,12.34
2022-10-02T01:52:16.110Z,12.38
2022-10-02T01:53:16.093Z,12.46
2022-10-02T01:54:16.081Z,12.41
2022-10-02T01:55:16.064Z,12.46
2022-10-02T01:56:16.055Z,12.38
2022-10-02T01:57:16.037Z,12.36
2022-10-02T01:58:16.033Z,12.37
2022-10-02T01:59:16.026Z,12.36
2022-10-02T02:00:16.193Z,12.43
2022-10-02T02:01:16.013Z,12.36
2022-10-02T02:02:16.012Z,12.43
2022-10-02T02:03:15.958Z,12.48
2022-10-02T02:04:15.938Z,12.46
2022-10-02T02:05:15.922Z,12.38
2022-10-02T02:06:15.910Z,12.48
2022-10-02T02:07:15.902Z,12.48
2022-10-02T02:08:15.885Z,12.49
2022-10-02T02:09:15.874Z,12.52
2022-10-02T02:10:15.860Z,12.43
2022-10-02T02:11:15.845Z,12.48
2022-10-02T02:12:15.844Z,12.43
2022-10-02T02:13:15.820Z,12.44
2022-10-02T02:14:15.806Z,12.38
2022-10-02T02:15:15.815Z,12.41
2022-10-02T02:16:15.809Z,12.48
2022-10-02T02:17:15.763Z,12.38
2022-10-02T02:18:15.754Z,12.46
2022-10-02T02:19:15.738Z,12.48
2022-10-02T02:20:15.724Z,12.43
2022-10-02T02:21:15.707Z,12.36
2022-10-02T02:22:15.695Z,12.48
2022-10-02T02:23:15.677Z,12.34
2022-10-02T02:24:15.669Z,12.41
2022-10-02T02:25:15.659Z,12.41
2022-10-02T02:26:15.646Z,12.41
2022-10-02T02:27:15.626Z,12.48
2022-10-02T02:28:15.810Z,12.38
2022-10-02T02:29:15.610Z,12.51
2022-10-02T02:30:15.591Z,12.33
2022-10-02T02:31:15.651Z,12.33
2022-10-02T02:32:15.570Z,12.43
2022-10-02T02:33:15.548Z,12.49
2022-10-02T02:34:15.540Z,12.48
2022-10-02T02:35:15.521Z,12.51
2022-10-02T02:36:15.505Z,12.54
2022-10-02T02:37:15.490Z,12.51
2022-10-02T02:38:15.484Z,12.43
2022-10-02T02:39:15.611Z,12.49
2022-10-02T02:40:15.459Z,12.43
2022-10-02T02:41:15.441Z,12.51
2022-10-02T02:42:17.806Z,12.52
2022-10-02T02:43:15.414Z,12.51
2022-10-02T02:44:15.396Z,12.36
2022-10-02T02:45:15.380Z,12.51
2022-10-02T02:46:15.446Z,12.44
2022-10-02T02:47:15.375Z,12.41
2022-10-02T02:48:15.344Z,12.49
2022-10-02T02:49:15.326Z,12.41
2022-10-02T02:50:15.318Z,12.40
2022-10-02T02:51:15.305Z,12.36
2022-10-02T02:52:15.294Z,12.36
2022-10-02T02:53:15.277Z,12.43
2022-10-02T02:54:15.267Z,12.43
2022-10-02T02:55:15.250Z,12.41
2022-10-02T02:56:15.237Z,12.44
2022-10-02T02:57:15.227Z,12.41
2022-10-02T02:58:15.216Z,12.48
2022-10-02T02:59:15.197Z,12.33
2022-10-02T03:00:15.180Z,12.40
2022-10-02T03:01:15.248Z,12.44
2022-10-02T03:02:15.246Z,12.36
2022-10-02T03:03:15.160Z,12.38
2022-10-02T03:04:15.128Z,12.46
2022-10-02T03:05:15.113Z,12.49
2022-10-02T03:06:15.103Z,12.40
2022-10-02T03:07:15.086Z,12.40
2022-10-02T03:08:15.076Z,12.38
2022-10-02T03:09:15.062Z,12.51
2022-10-02T03:10:15.049Z,12.41
2022-10-02T03:11:15.037Z,12.46
2022-10-02T03:12:15.017Z,12.38
2022-10-02T03:13:15.001Z,12.51
2022-10-02T03:14:14.992Z,12.56
2022-10-02T03:15:14.982Z,12.33
2022-10-02T03:16:15.045Z,12.40
2022-10-02T03:17:14.949Z,12.41
2022-10-02T03:18:14.940Z,12.44
2022-10-02T03:19:14.957Z,12.40
2022-10-02T03:20:14.912Z,12.40
2022-10-02T03:21:14.904Z,12.41
2022-10-02T03:22:14.885Z,12.29
2022-10-02T03:23:14.869Z,12.40
2022-10-02T03:24:14.857Z,12.36
2022-10-02T03:25:14.838Z,12.37
2022-10-02T03:26:14.831Z,12.41
2022-10-02T03:27:14.809Z,12.49
2022-10-02T03:28:15.081Z,12.46
2022-10-02T03:29:14.780Z,12.41
2022-10-02T03:30:14.775Z,12.36
2022-10-02T03:31:14.808Z,12.43
2022-10-02T03:32:14.754Z,12.44
2022-10-02T03:33:14.734Z,12.51
2022-10-02T03:34:14.723Z,12.38
2022-10-02T03:35:14.727Z,12.43
2022-10-02T03:36:14.700Z,12.43
2022-10-02T03:37:14.680Z,12.44
2022-10-02T03:38:14.670Z,12.44
2022-10-02T03:39:29.940Z,12.41
2022-10-02T03:40:15.659Z,12.46
2022-10-02T03:41:14.621Z,12.43
2022-10-02T03:42:14.615Z,12.52
2022-10-02T03:43:14.593Z,12.49
2022-10-02T03:44:14.589Z,12.51
2022-10-02T03:45:27.436Z,12.40
2022-10-02T03:46:15.619Z,12.41
2022-10-02T03:47:14.542Z,12.44
2022-10-02T03:48:14.550Z,12.46
2022-10-02T03:49:14.512Z,12.46
2022-10-02T03:50:14.508Z,12.52
2022-10-02T03:51:14.504Z,12.54
2022-10-02T03:52:14.476Z,12.48
2022-10-02T03:53:14.458Z,12.58
2022-10-02T03:54:14.453Z,12.59
2022-10-02T03:55:14.437Z,12.59
2022-10-02T03:56:14.433Z,12.69
2022-10-02T03:57:14.420Z,12.58
2022-10-02T03:58:14.398Z,12.52
2022-10-02T03:59:14.385Z,12.52
2022-10-02T04:00:14.373Z,12.56
2022-10-02T04:01:14.430Z,12.49
2022-10-02T04:02:14.342Z,12.55
2022-10-02T04:03:14.336Z,12.49
2022-10-02T04:04:14.314Z,12.49
2022-10-02T04:05:14.294Z,12.51
2022-10-02T04:06:14.285Z,12.46
2022-10-02T04:07:14.295Z,12.54
2022-10-02T04:08:14.257Z,12.55
2022-10-02T04:09:14.239Z,12.54
2022-10-02T04:10:14.234Z,12.38
2022-10-02T04:11:14.214Z,12.52
2022-10-02T04:12:14.217Z,12.43
2022-10-02T04:13:14.189Z,12.44
2022-10-02T04:14:14.187Z,12.43
2022-10-02T04:15:14.165Z,12.48
2022-10-02T04:16:14.211Z,12.44
2022-10-02T04:17:14.134Z,12.40
2022-10-02T04:18:14.127Z,12.38
2022-10-02T04:19:14.113Z,12.49
2022-10-02T04:20:14.100Z,12.40
2022-10-02T04:21:14.085Z,12.37
2022-10-02T04:22:14.062Z,12.51
2022-10-02T04:23:14.077Z,12.59
2022-10-02T04:24:14.037Z,12.63
2022-10-02T04:25:14.026Z,12.63
2022-10-02T04:26:14.007Z,12.58
2022-10-02T04:27:14.000Z,12.58
2022-10-02T04:28:14.032Z,12.63
2022-10-02T04:29:13.973Z,12.70
2022-10-02T04:30:13.957Z,12.71
2022-10-02T04:31:14.035Z,12.67
2022-10-02T04:32:13.928Z,12.63
2022-10-02T04:33:13.920Z,12.67
2022-10-02T04:34:13.901Z,12.67
2022-10-02T04:35:13.896Z,12.76
2022-10-02T04:36:13.882Z,12.62
2022-10-02T04:37:13.865Z,12.66
2022-10-02T04:38:13.851Z,12.70
2022-10-02T04:39:13.862Z,12.67
2022-10-02T04:40:13.822Z,12.70
2022-10-02T04:41:13.803Z,12.76
2022-10-02T04:42:13.797Z,12.76
2022-10-02T04:43:13.783Z,12.69
2022-10-02T04:44:13.767Z,12.67
2022-10-02T04:45:13.757Z,12.70
2022-10-02T04:46:13.809Z,12.66
2022-10-02T04:47:13.727Z,12.71
2022-10-02T04:48:13.708Z,12.62
2022-10-02T04:49:13.710Z,12.61
2022-10-02T04:50:13.685Z,12.59
2022-10-02T04:51:13.706Z,12.58
2022-10-02T04:52:13.659Z,12.59
2022-10-02T04:53:13.655Z,12.55
2022-10-02T04:54:13.634Z,12.55
2022-10-02T04:55:13.646Z,12.63
2022-10-02T04:56:13.608Z,12.55
2022-10-02T04:57:13.587Z,12.56
2022-10-02T04:58:13.585Z,12.58
2022-10-02T04:59:13.568Z,12.55
2022-10-02T05:00:13.553Z,12.58
2022-10-02T05:01:13.631Z,12.44
2022-10-02T05:02:13.587Z,12.56
2022-10-02T05:03:13.520Z,12.48
2022-10-02T05:04:13.492Z,12.48
2022-10-02T05:05:13.494Z,12.43
2022-10-02T05:06:13.470Z,12.41
2022-10-02T05:07:13.461Z,12.44
2022-10-02T05:08:13.446Z,12.46
2022-10-02T05:09:13.430Z,12.33
2022-10-02T05:10:13.417Z,12.37
2022-10-02T05:11:13.428Z,12.38
2022-10-02T05:12:13.393Z,12.38
2022-10-02T05:13:13.378Z,12.33
2022-10-02T05:14:13.363Z,12.43
2022-10-02T05:15:13.352Z,12.38
2022-10-02T05:16:13.400Z,12.29
2022-10-02T05:17:13.327Z,12.29
2022-10-02T05:18:17.710Z,12.34
2022-10-02T05:19:13.293Z,12.29
2022-10-02T05:20:13.274Z,12.23
2022-10-02T05:21:13.279Z,12.26
2022-10-02T05:22:13.250Z,12.29
2022-10-02T05:23:13.248Z,12.37
2022-10-02T05:24:13.229Z,12.29
2022-10-02T05:25:13.222Z,12.26
2022-10-02T05:26:14.492Z,12.30
2022-10-02T05:27:13.210Z,12.19
2022-10-02T05:28:13.235Z,12.26
2022-10-02T05:29:13.157Z,12.25
2022-10-02T05:30:13.142Z,12.21
2022-10-02T05:31:13.166Z,12.16
2022-10-02T05:32:13.122Z,12.33
2022-10-02T05:33:13.113Z,12.26
2022-10-02T05:34:13.095Z,12.16
2022-10-02T05:35:13.083Z,12.26
2022-10-02T05:36:13.072Z,12.30
2022-10-02T05:37:13.052Z,12.26
2022-10-02T05:38:13.042Z,12.31
2022-10-02T05:39:13.031Z,12.25
2022-10-02T05:40:13.011Z,12.31
2022-10-02T05:41:13.006Z,12.25
2022-10-02T05:42:12.987Z,12.38
2022-10-02T05:43:12.998Z,12.33
2022-10-02T05:44:12.955Z,12.38
2022-10-02T05:45:12.953Z,12.34
2022-10-02T05:46:13.109Z,12.25
2022-10-02T05:47:12.926Z,12.37
2022-10-02T05:48:12.901Z,12.25
2022-10-02T05:49:12.896Z,12.26
2022-10-02T05:50:12.882Z,12.29
2022-10-02T05:51:12.870Z,12.30
2022-10-02T05:52:12.865Z,12.29
2022-10-02T05:53:12.843Z,12.37
2022-10-02T05:54:12.825Z,12.36
2022-10-02T05:55:12.813Z,12.34
2022-10-02T05:56:12.795Z,12.29
2022-10-02T05:57:12.791Z,12.34
2022-10-02T05:58:12.769Z,12.36
2022-10-02T05:59:12.783Z,12.37
2022-10-02T06:00:12.741Z,12.51
2022-10-02T06:01:12.821Z,12.36
2022-10-02T06:02:12.770Z,12.38
2022-10-02T06:03:12.711Z,12.44
2022-10-02T06:04:12.696Z,12.46
2022-10-02T06:05:12.675Z,12.44
2022-10-02T06:06:12.669Z,12.36
2022-10-02T06:07:12.656Z,12.36
2022-10-02T06:08:12.641Z,12.43
2022-10-02T06:09:16.526Z,12.40
2022-10-02T06:10:13.634Z,12.36
2022-10-02T06:11:12.602Z,12.34
2022-10-02T06:12:12.582Z,12.41
2022-10-02T06:13:12.577Z,12.51
2022-10-02T06:14:12.556Z,12.44
2022-10-02T06:15:12.570Z,12.48
2022-10-02T06:16:12.608Z,12.36
2022-10-02T06:17:12.522Z,12.43
2022-10-02T06:18:12.506Z,12.43
2022-10-02T06:19:12.499Z,12.41
2022-10-02T06:20:12.475Z,12.51
2022-10-02T06:21:12.468Z,12.52
2022-10-02T06:22:12.452Z,12.59
2022-10-02T06:23:12.445Z,12.56
2022-10-02T06:24:12.428Z,12.52
2022-10-02T06:25:12.414Z,12.56
2022-10-02T06:26:12.402Z,12.56
2022-10-02T06:27:12.395Z,12.69
2022-10-02T06:28:12.437Z,12.66
2022-10-02T06:29:17.466Z,12.66
2022-10-02T06:30:13.360Z,12.63
2022-10-02T06:31:12.403Z,12.70
2022-10-02T06:32:12.315Z,12.67
2022-10-02T06:33:12.309Z,12.73
2022-10-02T06:34:12.290Z,12.76
2022-10-02T06:35:12.280Z,12.80
2022-10-02T06:36:12.267Z,12.69
2022-10-02T06:37:12.257Z,12.74
2022-10-02T06:38:12.240Z,12.71
2022-10-02T06:39:12.230Z,12.80
2022-10-02T06:40:12.212Z,12.81
2022-10-02T06:41:12.193Z,12.79
2022-10-02T06:42:12.182Z,12.84
2022-10-02T06:43:12.168Z,12.85
2022-10-02T06:44:12.158Z,12.87
2022-10-02T06:45:12.146Z,12.87
2022-10-02T06:46:12.168Z,12.79
2022-10-02T06:47:12.138Z,12.91
2022-10-02T06:48:12.092Z,12.81
2022-10-02T06:49:12.095Z,12.95
2022-10-02T06:50:12.075Z,13.01
2022-10-02T06:51:12.064Z,13.04
2022-10-02T06:52:12.045Z,13.07
2022-10-02T06:53:12.032Z,13.06
2022-10-02T06:54:12.013Z,13.09
2022-10-02T06:55:12.009Z,13.03
2022-10-02T06:56:11.988Z,13.12
2022-10-02T06:57:11.970Z,13.14
2022-10-02T06:58:11.956Z,13.12
2022-10-02T06:59:11.947Z,13.32
2022-10-02T07:00:11.935Z,13.16
2022-10-02T07:01:11.975Z,13.28
2022-10-02T07:02:11.945Z,13.32
2022-10-02T07:03:11.918Z,13.39
2022-10-02T07:04:11.882Z,13.32
2022-10-02T07:05:11.868Z,13.36
2022-10-02T07:06:11.850Z,13.46
2022-10-02T07:07:11.842Z,13.41
2022-10-02T07:08:11.820Z,13.44
2022-10-02T07:09:11.806Z,13.43
2022-10-02T07:10:11.790Z,13.54
2022-10-02T07:11:11.779Z,13.46
2022-10-02T07:12:11.766Z,13.61
2022-10-02T07:13:11.751Z,13.59
2022-10-02T07:14:11.734Z,13.63
2022-10-02T07:15:11.725Z,13.69
2022-10-02T07:16:11.770Z,13.51
2022-10-02T07:17:11.702Z,13.50
2022-10-02T07:18:11.687Z,13.66
2022-10-02T07:19:11.807Z,13.71
2022-10-02T07:20:11.658Z,13.71
2022-10-02T07:21:11.648Z,13.80
2022-10-02T07:22:39.565Z,13.73
2022-10-02T07:23:12.643Z,13.75
2022-10-02T07:24:11.600Z,13.80
2022-10-02T07:25:11.589Z,13.81
2022-10-02T07:26:11.574Z,13.84
2022-10-02T07:27:11.560Z,13.84
2022-10-02T07:28:11.599Z,13.90
2022-10-02T07:29:11.541Z,13.94
2022-10-02T07:30:11.522Z,13.98
2022-10-02T07:31:11.601Z,14.11
2022-10-02T07:32:11.491Z,14.12
2022-10-02T07:33:11.557Z,14.21
2022-10-02T07:34:11.521Z,14.23
2022-10-02T07:35:11.491Z,14.35
2022-10-02T07:36:11.441Z,14.26
2022-10-02T07:37:11.423Z,14.29
2022-10-02T07:38:11.409Z,14.36
2022-10-02T07:39:11.398Z,14.46
2022-10-02T07:40:11.385Z,14.57
2022-10-02T07:41:11.380Z,14.64
2022-10-02T07:42:11.362Z,14.72
2022-10-02T07:43:11.348Z,14.71
2022-10-02T07:44:11.444Z,14.78
2022-10-02T07:45:11.323Z,14.87
2022-10-02T07:46:11.344Z,14.95
2022-10-02T07:47:11.302Z,14.98
2022-10-02T07:48:11.275Z,14.97
2022-10-02T07:49:11.260Z,15.01
2022-10-02T07:50:11.243Z,15.00
2022-10-02T07:51:11.258Z,14.93
2022-10-02T07:52:11.218Z,14.95
2022-10-02T07:53:11.210Z,14.97
2022-10-02T07:54:11.191Z,14.95
2022-10-02T07:55:11.183Z,14.95
2022-10-02T07:56:11.170Z,15.05
2022-10-02T07:57:11.159Z,15.05
2022-10-02T07:58:11.146Z,15.09
2022-10-02T07:59:11.141Z,15.27
2022-10-02T08:00:11.113Z,15.48
2022-10-02T08:01:11.102Z,15.85
2022-10-02T08:02:11.113Z,15.96
2022-10-02T08:03:11.122Z,15.95
2022-10-02T08:04:11.060Z,16.10
2022-10-02T08:05:11.048Z,16.77
2022-10-02T08:06:11.034Z,17.06
2022-10-02T08:07:11.046Z,16.95
2022-10-02T08:08:11.007Z,17.06
2022-10-02T08:09:11.001Z,16.81
2022-10-02T08:10:10.981Z,16.69
2022-10-02T08:11:10.970Z,16.57
2022-10-02T08:12:10.947Z,16.42
2022-10-02T08:13:10.939Z,16.25
2022-10-02T08:14:10.922Z,16.29
2022-10-02T08:15:10.907Z,16.96
2022-10-02T08:16:10.953Z,17.76
2022-10-02T08:17:10.884Z,18.10
2022-10-02T08:18:33.105Z,18.46
2022-10-02T08:19:11.874Z,18.89
2022-10-02T08:20:10.840Z,19.24
2022-10-02T08:21:10.834Z,19.32
2022-10-02T08:22:10.816Z,19.13
2022-10-02T08:23:10.827Z,19.82
2022-10-02T08:24:10.793Z,20.23
2022-10-02T08:25:10.780Z,20.04
2022-10-02T08:26:10.764Z,20.25
2022-10-02T08:27:10.755Z,20.42
2022-10-02T08:28:10.780Z,20.12
2022-10-02T08:29:10.721Z,20.13
2022-10-02T08:30:10.706Z,19.98
2022-10-02T08:31:10.795Z,20.87
2022-10-02T08:32:10.681Z,21.26
2022-10-02T08:33:10.667Z,21.42
2022-10-02T08:34:10.654Z,21.40
2022-10-02T08:35:10.637Z,21.85
2022-10-02T08:36:10.633Z,22.14
2022-10-02T08:37:10.617Z,22.35
2022-10-02T08:38:10.607Z,22.64
2022-10-02T08:39:10.606Z,22.91
2022-10-02T08:40:10.677Z,22.91
2022-10-02T08:41:10.561Z,23.38
2022-10-02T08:42:10.560Z,23.50
2022-10-02T08:43:10.533Z,23.79
2022-10-02T08:44:10.519Z,23.82
2022-10-02T08:45:10.503Z,23.16
2022-10-02T08:46:10.614Z,22.44
2022-10-02T08:47:10.474Z,21.91
2022-10-02T08:48:10.467Z,21.59
2022-10-02T08:49:10.449Z,21.06
2022-10-02T08:50:10.444Z,20.85
2022-10-02T08:51:10.424Z,20.30
2022-10-02T08:52:10.419Z,20.27
2022-10-02T08:53:10.403Z,20.68
2022-10-02T08:54:10.394Z,20.90
2022-10-02T08:55:10.725Z,21.05
2022-10-02T08:56:10.403Z,21.30
2022-10-02T08:57:10.353Z,21.09
2022-10-02T08:58:10.343Z,21.21
2022-10-02T08:59:10.323Z,21.30
2022-10-02T09:00:10.306Z,21.16
2022-10-02T09:01:10.440Z,20.85
2022-10-02T09:02:10.387Z,21.16
2022-10-02T09:03:10.265Z,21.36
2022-10-02T09:04:10.255Z,21.58
2022-10-02T09:05:10.246Z,21.99
2022-10-02T09:06:10.228Z,22.42
2022-10-02T09:07:10.210Z,22.31
2022-10-02T09:08:10.199Z,22.17
2022-10-02T09:09:10.182Z,21.94
2022-10-02T09:10:10.173Z,22.38
2022-10-02T09:11:10.175Z,22.41
2022-10-02T09:12:10.146Z,23.19
2022-10-02T09:13:10.144Z,23.44
2022-10-02T09:14:10.154Z,23.01
2022-10-02T09:15:10.099Z,23.35
2022-10-02T09:16:10.196Z,23.39
2022-10-02T09:17:10.119Z,23.50
2022-10-02T09:18:10.068Z,23.82
2022-10-02T09:19:10.053Z,24.44
2022-10-02T09:20:10.044Z,25.27
2022-10-02T09:21:11.714Z,25.45
2022-10-02T09:22:10.020Z,25.31
2022-10-02T09:23:10.001Z,25.79
2022-10-02T09:24:09.987Z,25.83
2022-10-02T09:25:09.980Z,25.85
2022-10-02T09:26:09.961Z,25.27
2022-10-02T09:27:09.962Z,25.42
2022-10-02T09:28:09.982Z,25.59
2022-10-02T09:29:09.921Z,25.08
2022-10-02T09:30:09.908Z,24.82
2022-10-02T09:31:09.933Z,24.67
2022-10-02T09:32:09.901Z,24.37
2022-10-02T09:33:12.722Z,24.68
2022-10-02T09:34:09.863Z,25.16
2022-10-02T09:35:09.844Z,25.75
2022-10-02T09:36:09.829Z,26.31
2022-10-02T09:37:09.816Z,26.29
2022-10-02T09:38:09.803Z,25.63
2022-10-02T09:39:09.793Z,25.05
2022-10-02T09:40:09.784Z,24.68
2022-10-02T09:41:09.765Z,24.36
2022-10-02T09:42:09.762Z,24.00
2022-10-02T09:43:09.776Z,24.00
2022-10-02T09:44:09.732Z,23.94
2022-10-02T09:45:09.712Z,23.12
2022-10-02T09:46:09.790Z,22.54
2022-10-02T09:47:09.688Z,22.29
2022-10-02T09:48:09.677Z,22.30
2022-10-02T09:49:09.657Z,22.27
2022-10-02T09:50:09.650Z,21.89
2022-10-02T09:51:09.657Z,21.49
2022-10-02T09:52:09.622Z,21.22
2022-10-02T09:53:09.606Z,21.19
2022-10-02T09:54:09.596Z,21.09
2022-10-02T09:55:09.577Z,21.05
2022-10-02T09:56:09.576Z,21.06
2022-10-02T09:57:09.556Z,21.03
2022-10-02T09:58:09.546Z,20.97
2022-10-02T09:59:09.559Z,20.97
2022-10-02T10:00:09.520Z,21.09
2022-10-02T10:01:09.622Z,21.21
2022-10-02T10:02:09.549Z,21.33
2022-10-02T10:03:09.477Z,21.33
2022-10-02T10:04:09.464Z,21.27
2022-10-02T10:05:09.444Z,21.28
2022-10-02T10:06:09.436Z,21.33
2022-10-02T10:07:09.417Z,21.28
2022-10-02T10:08:09.408Z,21.38
2022-10-02T10:09:09.399Z,21.33
2022-10-02T10:10:09.385Z,21.40
2022-10-02T10:11:09.373Z,21.34
2022-10-02T10:12:09.366Z,21.45
2022-10-02T10:13:09.342Z,21.83
2022-10-02T10:14:09.337Z,22.01
2022-10-02T10:15:09.443Z,22.06
2022-10-02T10:16:09.335Z,22.33
2022-10-02T10:17:09.329Z,22.61
2022-10-02T10:18:09.296Z,22.93
2022-10-02T10:19:09.261Z,23.15
2022-10-02T10:20:09.262Z,22.81
2022-10-02T10:21:09.230Z,22.41
2022-10-02T10:22:09.227Z,22.21
2022-10-02T10:23:09.206Z,22.01
2022-10-02T10:24:09.210Z,21.93
2022-10-02T10:25:09.185Z,21.91
2022-10-02T10:26:09.175Z,21.89
2022-10-02T10:27:09.163Z,21.79
2022-10-02T10:28:09.224Z,21.86
2022-10-02T10:29:09.134Z,22.01
2022-10-02T10:30:09.126Z,22.11
2022-10-02T10:31:09.123Z,22.01
2022-10-02T10:32:09.091Z,21.86
2022-10-02T10:33:09.109Z,21.63
2022-10-02T10:34:09.074Z,21.53
2022-10-02T10:35:09.052Z,21.49
2022-10-02T10:36:09.047Z,21.40
2022-10-02T10:37:09.028Z,21.45
2022-10-02T10:38:09.020Z,21.22
2022-10-02T10:39:09.003Z,21.18
2022-10-02T10:40:08.989Z,20.98
2022-10-02T10:41:08.977Z,21.00
2022-10-02T10:42:08.962Z,20.73
2022-10-02T10:43:08.952Z,20.58
2022-10-02T10:44:08.946Z,20.63
2022-10-02T10:45:08.919Z,20.60
2022-10-02T10:46:09.028Z,20.60
2022-10-02T10:47:08.910Z,20.73
2022-10-02T10:48:08.886Z,20.82
2022-10-02T10:49:08.876Z,21.05
2022-10-02T10:50:08.859Z,21.15
2022-10-02T10:51:08.839Z,21.11
2022-10-02T10:52:08.831Z,21.03
2022-10-02T10:53:08.908Z,20.98
2022-10-02T10:54:08.806Z,21.01
2022-10-02T10:55:08.784Z,21.08
2022-10-02T10:56:08.779Z,21.26
2022-10-02T10:57:08.757Z,21.18
2022-10-02T10:58:08.752Z,21.19
2022-10-02T10:59:08.733Z,21.01
2022-10-02T11:00:08.717Z,21.01
2022-10-02T11:01:08.820Z,21.01
2022-10-02T11:02:08.753Z,21.16
2022-10-02T11:03:08.702Z,21.19
2022-10-02T11:04:08.668Z,21.18
2022-10-02T11:05:08.654Z,21.55
2022-10-02T11:06:08.650Z,21.74
2022-10-02T11:07:08.630Z,22.05
2022-10-02T11:08:08.616Z,22.41
2022-10-02T11:09:08.602Z,22.29
2022-10-02T11:10:08.591Z,22.31
2022-10-02T11:11:08.569Z,22.36
2022-10-02T11:12:09.806Z,22.82
2022-10-02T11:13:08.541Z,23.44
2022-10-02T11:14:08.539Z,23.57
2022-10-02T11:15:08.517Z,23.84
2022-10-02T11:16:08.539Z,24.49
2022-10-02T11:17:08.495Z,25.07
2022-10-02T11:18:08.480Z,25.63
2022-10-02T11:19:08.497Z,25.90
2022-10-02T11:20:08.454Z,26.32
2022-10-02T11:21:08.444Z,26.88
2022-10-02T11:22:08.428Z,26.96
2022-10-02T11:23:08.416Z,26.76
2022-10-02T11:24:08.505Z,25.97
2022-10-02T11:25:12.718Z,25.39
2022-10-02T11:26:08.384Z,24.90
2022-10-02T11:27:08.359Z,24.71
2022-10-02T11:28:08.405Z,24.42
2022-10-02T11:29:08.339Z,24.30
2022-10-02T11:30:08.325Z,24.02
2022-10-02T11:31:08.309Z,23.81
2022-10-02T11:32:08.347Z,23.67
2022-10-02T11:33:08.277Z,23.42
2022-10-02T11:34:08.268Z,23.25
2022-10-02T11:35:08.274Z,23.04
2022-10-02T11:36:08.241Z,22.74
2022-10-02T11:37:08.230Z,22.39
2022-10-02T11:38:08.218Z,22.21
2022-10-02T11:39:08.207Z,21.85
2022-10-02T11:40:08.194Z,21.59
2022-10-02T11:41:08.177Z,21.26
2022-10-02T11:42:08.163Z,21.08
2022-10-02T11:43:08.152Z,21.03
2022-10-02T11:44:08.143Z,20.98
2022-10-02T11:45:08.118Z,20.90
2022-10-02T11:46:08.191Z,20.85
2022-10-02T11:47:08.096Z,20.63
2022-10-02T11:48:08.082Z,20.61
2022-10-02T11:49:08.074Z,20.68
2022-10-02T11:50:08.058Z,20.68
2022-10-02T11:51:08.146Z,20.78
2022-10-02T11:52:08.036Z,20.87
2022-10-02T11:53:08.019Z,21.06
2022-10-02T11:54:08.003Z,20.97
2022-10-02T11:55:07.995Z,21.05
2022-10-02T11:56:07.979Z,21.00
2022-10-02T11:57:07.971Z,20.93
2022-10-02T11:58:07.950Z,20.93
2022-10-02T11:59:07.940Z,20.72
2022-10-02T12:00:07.921Z,20.78
2022-10-02T12:01:07.912Z,20.60
2022-10-02T12:02:08.087Z,20.64
2022-10-02T12:03:07.969Z,20.56
2022-10-02T12:04:07.877Z,20.51
2022-10-02T12:05:07.855Z,20.37
2022-10-02T12:06:07.851Z,20.40
2022-10-02T12:07:07.851Z,20.27
2022-10-02T12:08:07.848Z,20.19
2022-10-02T12:09:07.800Z,20.12
2022-10-02T12:10:07.801Z,20.07
2022-10-02T12:11:07.774Z,20.00
2022-10-02T12:12:07.772Z,19.95
2022-10-02T12:13:07.748Z,19.85
2022-10-02T12:14:07.740Z,19.68
2022-10-02T12:15:07.718Z,19.80
2022-10-02T12:16:07.784Z,19.70
2022-10-02T12:17:07.698Z,19.70
2022-10-02T12:18:07.699Z,19.61
2022-10-02T12:19:07.673Z,19.58
2022-10-02T12:20:07.664Z,19.49
2022-10-02T12:21:07.637Z,19.58
2022-10-02T12:22:07.636Z,19.58
2022-10-02T12:23:07.634Z,19.58
2022-10-02T12:24:07.607Z,19.49
2022-10-02T12:25:07.585Z,19.57
2022-10-02T12:26:07.583Z,19.53
2022-10-02T12:27:07.559Z,19.49
2022-10-02T12:28:07.643Z,19.49
2022-10-02T12:29:07.533Z,19.47
2022-10-02T12:30:07.531Z,19.40
2022-10-02T12:31:07.505Z,19.23
2022-10-02T12:32:07.579Z,19.15
2022-10-02T12:33:07.480Z,19.02
2022-10-02T12:34:07.475Z,18.82
2022-10-02T12:35:07.455Z,18.72
2022-10-02T12:36:07.439Z,18.54
2022-10-02T12:37:07.436Z,18.49
2022-10-02T12:38:07.413Z,18.51
2022-10-02T12:39:07.422Z,18.36
2022-10-02T12:40:07.397Z,18.42
2022-10-02T12:41:07.377Z,18.31
2022-10-02T12:42:07.364Z,18.26
2022-10-02T12:43:07.348Z,18.26
2022-10-02T12:44:07.334Z,18.16
2022-10-02T12:45:11.595Z,18.16
2022-10-02T12:46:07.371Z,18.02
2022-10-02T12:47:07.295Z,17.95
2022-10-02T12:48:07.283Z,17.99
2022-10-02T12:49:07.271Z,17.91
2022-10-02T12:50:07.272Z,17.95
2022-10-02T12:51:07.246Z,18.05
2022-10-02T12:52:07.225Z,18.25